createdAt,value
2023-03-03T00:01:05.146Z,102890.44
2023-03-03T00:03:33.579Z,102873.56
2023-03-03T00:06:01.603Z,102884.16
2023-03-03T00:08:29.626Z,102899.63
2023-03-03T00:11:00.917Z,102897.91
2023-03-03T00:13:28.995Z,102889.41
2023-03-03T00:15:57.291Z,102894.66
2023-03-03T00:18:28.523Z,102874.16
2023-03-03T00:20:58.673Z,102905.03
2023-03-03T00:23:36.244Z,102897.41
2023-03-03T00:26:10.127Z,102906.88
2023-03-03T00:28:44.243Z,102890.47
2023-03-03T00:31:16.226Z,102905.06
2023-03-03T00:33:46.944Z,102908.41
2023-03-03T00:36:27.606Z,102912.50
2023-03-03T00:38:55.624Z,102901.13
2023-03-03T00:41:26.004Z,102910.69
2023-03-03T00:43:54.155Z,102913.44
2023-03-03T00:46:22.838Z,102920.50
2023-03-03T00:48:51.872Z,102906.88
2023-03-03T00:51:28.165Z,102891.72
2023-03-03T00:53:56.296Z,102919.19
2023-03-03T00:56:25.809Z,102900.38
2023-03-03T00:58:54.408Z,102902.13
2023-03-03T01:01:25.645Z,102920.25
2023-03-03T01:03:55.251Z,102932.50
2023-03-03T01:06:23.196Z,102933.41
2023-03-03T01:08:51.352Z,102933.53
2023-03-03T01:11:22.703Z,102921.56
2023-03-03T01:13:52.753Z,102922.53
2023-03-03T01:16:21.055Z,102930.47
2023-03-03T01:18:49.103Z,102926.94
2023-03-03T01:21:17.090Z,102936.63
2023-03-03T01:23:45.091Z,102931.41
2023-03-03T01:26:13.177Z,102932.31
2023-03-03T01:28:41.188Z,102934.03
2023-03-03T01:31:11.637Z,102933.16
2023-03-03T01:33:40.074Z,102928.97
2023-03-03T01:36:09.341Z,102920.59
2023-03-03T01:38:37.746Z,102928.34
2023-03-03T01:41:06.140Z,102922.38
2023-03-03T01:43:34.526Z,102923.66
2023-03-03T01:46:31.806Z,102926.09
2023-03-03T01:49:03.174Z,102920.22
2023-03-03T01:51:32.292Z,102922.91
2023-03-03T01:54:01.416Z,102924.63
2023-03-03T01:56:29.377Z,102919.50
2023-03-03T01:59:00.251Z,102906.81
2023-03-03T02:01:32.454Z,102927.41
2023-03-03T02:04:00.562Z,102938.75
2023-03-03T02:06:29.798Z,102932.69
2023-03-03T02:09:00.445Z,102900.09
2023-03-03T02:11:28.437Z,102935.34
2023-03-03T02:13:56.491Z,102942.34
2023-03-03T02:16:24.543Z,102904.44
2023-03-03T02:18:53.884Z,102918.19
2023-03-03T02:21:22.712Z,102921.66
2023-03-03T02:23:52.465Z,102906.25
2023-03-03T02:26:24.518Z,102900.22
2023-03-03T02:28:57.720Z,102913.03
2023-03-03T02:31:26.612Z,102914.00
2023-03-03T02:33:55.593Z,102910.69
2023-03-03T02:36:24.702Z,102913.34
2023-03-03T02:38:54.615Z,102913.31
2023-03-03T02:41:30.601Z,102917.59
2023-03-03T02:44:01.537Z,102899.63
2023-03-03T02:46:30.638Z,102921.97
2023-03-03T02:48:58.727Z,102927.22
2023-03-03T02:51:26.714Z,102927.31
2023-03-03T02:53:54.644Z,102925.59
2023-03-03T02:56:25.865Z,102921.38
2023-03-03T02:58:55.751Z,102926.63
2023-03-03T03:01:24.018Z,102938.03
2023-03-03T03:03:54.223Z,102936.31
2023-03-03T03:06:23.911Z,102938.09
2023-03-03T03:08:52.667Z,102943.41
2023-03-03T03:11:22.078Z,102949.56
2023-03-03T03:13:50.197Z,102934.91
2023-03-03T03:16:19.835Z,102936.66
2023-03-03T03:18:47.857Z,102945.34
2023-03-03T03:21:16.482Z,102952.38
2023-03-03T03:23:44.764Z,102924.78
2023-03-03T03:26:14.582Z,102955.88
2023-03-03T03:28:43.664Z,102950.66
2023-03-03T03:31:11.736Z,102952.44
2023-03-03T03:33:41.181Z,102958.63
2023-03-03T03:36:09.619Z,102961.28
2023-03-03T03:38:38.107Z,102949.09
2023-03-03T03:41:08.061Z,102921.50
2023-03-03T03:43:36.551Z,102943.91
2023-03-03T03:46:04.957Z,102951.75
2023-03-03T03:48:33.872Z,102940.50
2023-03-03T03:51:04.831Z,102920.91
2023-03-03T03:53:33.678Z,102935.41
2023-03-03T03:56:01.865Z,102940.66
2023-03-03T03:58:30.969Z,102925.34
2023-03-03T04:01:03.947Z,102898.56
2023-03-03T04:03:32.508Z,102900.41
2023-03-03T04:06:00.507Z,102944.22
2023-03-03T04:08:30.059Z,102931.25
2023-03-03T04:10:58.043Z,102931.28
2023-03-03T04:13:28.975Z,102935.56
2023-03-03T04:15:57.498Z,102933.84
2023-03-03T04:18:25.564Z,102911.47
2023-03-03T04:20:54.477Z,102906.31
2023-03-03T04:23:22.616Z,102928.63
2023-03-03T04:25:52.176Z,102923.47
2023-03-03T04:28:21.916Z,102919.97
2023-03-03T04:30:51.178Z,102925.00
2023-03-03T04:33:21.053Z,102928.47
2023-03-03T04:35:50.148Z,102926.72
2023-03-03T04:38:18.665Z,102930.97
2023-03-03T04:40:48.616Z,102930.09
2023-03-03T04:43:19.713Z,102927.59
2023-03-03T04:45:48.545Z,102934.44
2023-03-03T04:48:17.792Z,102938.78
2023-03-03T04:50:48.590Z,102895.72
2023-03-03T04:53:16.657Z,102920.59
2023-03-03T04:55:45.067Z,102935.16
2023-03-03T04:58:13.281Z,102950.72
2023-03-03T05:00:43.096Z,102949.06
2023-03-03T05:03:12.790Z,102935.31
2023-03-03T05:05:42.354Z,102948.19
2023-03-03T05:08:10.284Z,102954.25
2023-03-03T05:10:38.722Z,102952.44
2023-03-03T05:13:06.726Z,102959.41
2023-03-03T05:15:34.805Z,102943.63
2023-03-03T05:18:05.021Z,102940.91
2023-03-03T05:20:33.452Z,102953.28
2023-03-03T05:23:01.733Z,102947.03
2023-03-03T05:25:29.713Z,102959.38
2023-03-03T05:27:57.733Z,102964.63
2023-03-03T05:30:25.757Z,102956.00
2023-03-03T05:32:53.851Z,102953.50
2023-03-03T05:35:23.458Z,102942.28
2023-03-03T05:37:52.754Z,102960.59
2023-03-03T05:40:21.410Z,102955.50
2023-03-03T05:42:49.375Z,102956.50
2023-03-03T05:45:20.415Z,102960.09
2023-03-03T05:47:50.771Z,102966.28
2023-03-03T05:50:19.070Z,102922.44
2023-03-03T05:52:50.878Z,102943.19
2023-03-03T05:55:19.162Z,102956.97
2023-03-03T05:57:48.585Z,102950.00
2023-03-03T06:00:17.725Z,102937.97
2023-03-03T06:02:45.735Z,102926.00
2023-03-03T06:05:13.724Z,102957.03
2023-03-03T06:07:41.796Z,102951.75
2023-03-03T06:10:12.179Z,102929.38
2023-03-03T06:12:44.249Z,102949.13
2023-03-03T06:15:12.902Z,102954.31
2023-03-03T06:17:40.872Z,102949.84
2023-03-03T06:20:10.009Z,102953.31
2023-03-03T06:22:38.105Z,102949.84
2023-03-03T06:25:06.595Z,102940.44
2023-03-03T06:27:36.321Z,102949.81
2023-03-03T06:30:04.459Z,102956.66
2023-03-03T06:32:32.426Z,102954.94
2023-03-03T06:35:00.561Z,102958.53
2023-03-03T06:37:28.572Z,102928.47
2023-03-03T06:39:56.843Z,102960.31
2023-03-03T06:42:24.977Z,102944.94
2023-03-03T06:44:54.337Z,102971.16
2023-03-03T06:47:22.213Z,102968.59
2023-03-03T06:49:50.132Z,102967.84
2023-03-03T06:52:20.480Z,102946.50
2023-03-03T06:54:48.582Z,102969.88
2023-03-03T06:57:19.009Z,102951.13
2023-03-03T06:59:48.135Z,102973.47
2023-03-03T07:02:18.592Z,102984.84
2023-03-03T07:04:47.174Z,102974.53
2023-03-03T07:07:18.026Z,102985.78
2023-03-03T07:09:46.669Z,102989.22
2023-03-03T07:12:16.574Z,102989.22
2023-03-03T07:14:46.080Z,102985.88
2023-03-03T07:17:18.148Z,102996.25
2023-03-03T07:19:46.336Z,103000.59
2023-03-03T07:22:17.269Z,103006.78
2023-03-03T07:24:45.919Z,103001.56
2023-03-03T07:27:16.383Z,103005.09
2023-03-03T07:29:44.506Z,103017.16
2023-03-03T07:32:29.088Z,103007.66
2023-03-03T07:34:57.409Z,102986.06
2023-03-03T07:37:32.896Z,103006.66
2023-03-03T07:40:02.487Z,103009.25
2023-03-03T07:42:35.596Z,103017.03
2023-03-03T07:45:24.656Z,103003.00
2023-03-03T07:47:54.308Z,103006.34
2023-03-03T07:50:23.084Z,103006.22
2023-03-03T07:52:57.595Z,103014.78
2023-03-03T07:55:31.503Z,103027.72
2023-03-03T07:58:02.739Z,103017.22
2023-03-03T08:01:13.548Z,103024.03
2023-03-03T08:03:44.867Z,103023.97
2023-03-03T08:06:30.303Z,103023.00
2023-03-03T08:08:59.315Z,103006.75
2023-03-03T08:11:27.778Z,103007.25
2023-03-03T08:13:55.822Z,103000.22
2023-03-03T08:16:29.182Z,103020.78
2023-03-03T08:18:58.574Z,103017.13
2023-03-03T08:21:27.690Z,103034.09
2023-03-03T08:23:55.725Z,103034.94
2023-03-03T08:26:24.911Z,103036.31
2023-03-03T08:28:53.460Z,103013.81
2023-03-03T08:31:38.253Z,103028.22
2023-03-03T08:34:10.010Z,103036.56
2023-03-03T08:36:40.530Z,103057.91
2023-03-03T08:39:16.941Z,103051.56
2023-03-03T08:41:46.306Z,103018.78
2023-03-03T08:44:14.340Z,103035.63
2023-03-03T08:46:44.127Z,103063.94
2023-03-03T08:49:13.738Z,103071.41
2023-03-03T08:51:41.966Z,103064.16
2023-03-03T08:54:10.334Z,103071.75
2023-03-03T08:56:38.938Z,103061.91
2023-03-03T08:59:07.093Z,103060.66
2023-03-03T09:01:37.381Z,103070.72
2023-03-03T09:04:07.852Z,103063.19
2023-03-03T09:06:37.292Z,103058.19
2023-03-03T09:09:05.982Z,103061.88
2023-03-03T09:11:34.025Z,103059.44
2023-03-03T09:14:16.881Z,103052.38
2023-03-03T09:16:47.108Z,103067.00
2023-03-03T09:19:24.515Z,103067.63
2023-03-03T09:21:54.868Z,103065.72
2023-03-03T09:24:26.581Z,103069.75
2023-03-03T09:26:54.999Z,103069.66
2023-03-03T09:29:27.705Z,103069.22
2023-03-03T09:31:56.087Z,103073.41
2023-03-03T09:34:26.042Z,103076.91
2023-03-03T09:36:56.075Z,103084.78
2023-03-03T09:39:25.524Z,103079.44
2023-03-03T09:42:19.672Z,103071.00
2023-03-03T09:45:15.233Z,103085.91
2023-03-03T09:47:53.402Z,103082.84
2023-03-03T09:50:31.315Z,103068.16
2023-03-03T09:53:08.365Z,103088.41
2023-03-03T09:55:42.828Z,103082.78
2023-03-03T09:58:35.203Z,103091.53
2023-03-03T10:01:11.353Z,103077.13
2023-03-03T10:03:54.175Z,103074.50
2023-03-03T10:06:25.427Z,103091.25
2023-03-03T10:09:11.979Z,103080.56
2023-03-03T10:11:43.238Z,103068.16
2023-03-03T10:14:24.949Z,103096.75
2023-03-03T10:17:06.442Z,103090.13
2023-03-03T10:19:39.502Z,103071.34
2023-03-03T10:22:19.648Z,103086.34
2023-03-03T10:25:03.734Z,103103.78
2023-03-03T10:27:56.281Z,103099.91
2023-03-03T10:30:39.842Z,103094.19
2023-03-03T10:33:11.937Z,103096.41
2023-03-03T10:36:07.386Z,103096.13
2023-03-03T10:38:48.075Z,103100.03
2023-03-03T10:41:31.411Z,103094.22
2023-03-03T10:44:15.223Z,103075.63
2023-03-03T10:47:21.922Z,103101.69
2023-03-03T10:49:56.318Z,103095.06
2023-03-03T10:52:32.607Z,103101.91
2023-03-03T10:55:10.125Z,103101.81
2023-03-03T10:57:42.723Z,103089.59
2023-03-03T11:00:21.036Z,103103.06
2023-03-03T11:03:00.657Z,103097.56
2023-03-03T11:05:32.683Z,103097.06
2023-03-03T11:08:03.275Z,103079.47
2023-03-03T11:10:48.764Z,103111.97
2023-03-03T11:13:22.043Z,103104.47
2023-03-03T11:15:57.348Z,103078.13
2023-03-03T11:18:39.307Z,103110.16
2023-03-03T11:21:17.041Z,103101.81
2023-03-03T11:24:18.112Z,103107.91
2023-03-03T11:27:06.862Z,103110.19
2023-03-03T11:29:50.037Z,103116.75
2023-03-03T11:32:25.963Z,103108.25
2023-03-03T11:35:06.350Z,103116.78
2023-03-03T11:37:38.748Z,103121.41
2023-03-03T11:40:13.992Z,103132.97
2023-03-03T11:47:05.599Z,103124.56
2023-03-03T11:49:36.057Z,103129.38
2023-03-03T11:52:07.729Z,103118.66
2023-03-03T11:54:46.316Z,103133.22
2023-03-03T11:57:19.002Z,103126.91
2023-03-03T11:59:51.490Z,103120.22
2023-03-03T12:02:36.969Z,103115.09
2023-03-03T12:05:28.627Z,103112.50
2023-03-03T12:07:59.397Z,103115.09
2023-03-03T12:10:29.894Z,103099.78
2023-03-03T12:13:03.421Z,103078.28
2023-03-03T12:15:37.451Z,103112.16
2023-03-03T12:18:32.210Z,103121.13
2023-03-03T12:21:13.386Z,103126.69
2023-03-03T12:23:48.346Z,103114.34
2023-03-03T12:26:17.931Z,103099.41
2023-03-03T12:28:51.736Z,103114.41
2023-03-03T12:31:26.985Z,103110.91
2023-03-03T12:33:59.159Z,103117.41
2023-03-03T12:36:42.687Z,103094.47
2023-03-03T12:39:13.683Z,103111.88
2023-03-03T12:41:44.978Z,103093.03
2023-03-03T12:44:17.048Z,103093.81
2023-03-03T12:46:47.097Z,103102.78
2023-03-03T12:49:16.901Z,103101.00
2023-03-03T12:51:51.433Z,103092.72
2023-03-03T12:54:57.669Z,103083.38
2023-03-03T13:00:30.842Z,103100.25
2023-03-03T13:03:05.810Z,103088.13
2023-03-03T13:05:45.865Z,103096.22
2023-03-03T13:08:31.456Z,103094.78
2023-03-03T13:11:04.675Z,103092.38
2023-03-03T13:13:34.549Z,103073.81
2023-03-03T13:16:06.609Z,103096.81
2023-03-03T13:18:42.454Z,103080.06
2023-03-03T13:21:23.021Z,103062.94
2023-03-03T13:23:53.175Z,103087.38
2023-03-03T13:26:26.216Z,103089.34
2023-03-03T13:29:00.666Z,103086.72
2023-03-03T13:31:32.297Z,103059.41
2023-03-03T13:34:01.919Z,103079.69
2023-03-03T13:36:35.378Z,103087.38
2023-03-03T13:39:05.829Z,103083.44
2023-03-03T13:41:38.601Z,103091.50
2023-03-03T13:44:09.694Z,103052.16
2023-03-03T13:46:41.027Z,103066.50
2023-03-03T13:49:28.975Z,103064.50
2023-03-03T13:52:01.938Z,103079.53
2023-03-03T13:54:49.376Z,103077.66
2023-03-03T13:57:23.510Z,103076.13
2023-03-03T14:00:00.173Z,103076.78
2023-03-03T14:02:49.112Z,103073.16
2023-03-03T14:05:18.679Z,103069.25
2023-03-03T14:07:50.942Z,103078.66
2023-03-03T14:10:21.841Z,103087.28
2023-03-03T14:12:52.752Z,103091.41
2023-03-03T14:15:23.836Z,103092.00
2023-03-03T14:18:05.540Z,103086.84
2023-03-03T14:20:34.628Z,103086.53
2023-03-03T14:23:04.947Z,103084.50
2023-03-03T14:25:54.457Z,103084.16
2023-03-03T14:28:23.401Z,103078.50
2023-03-03T14:30:51.635Z,103087.06
2023-03-03T14:33:23.982Z,103060.03
2023-03-03T14:36:01.888Z,103078.78
2023-03-03T14:38:48.419Z,103079.53
2023-03-03T14:41:18.785Z,103072.34
2023-03-03T14:43:47.427Z,103070.66
2023-03-03T14:46:33.614Z,103066.72
2023-03-03T14:49:03.251Z,103048.75
2023-03-03T14:51:32.882Z,103050.28
2023-03-03T14:54:02.594Z,103054.47
2023-03-03T14:56:32.029Z,103034.38
2023-03-03T14:59:17.635Z,103059.19
2023-03-03T15:01:46.059Z,103052.84
2023-03-03T15:04:25.713Z,103058.97
2023-03-03T15:06:54.665Z,103028.13
2023-03-03T15:09:31.026Z,103060.41
2023-03-03T15:12:00.239Z,103040.75
2023-03-03T15:14:31.790Z,103046.91
2023-03-03T15:17:12.687Z,103050.16
2023-03-03T15:19:49.359Z,103041.63
2023-03-03T15:22:21.508Z,103020.13
2023-03-03T15:24:55.155Z,103034.16
2023-03-03T15:27:24.939Z,103025.25
2023-03-03T15:30:02.326Z,103019.97
2023-03-03T15:32:33.784Z,103034.59
2023-03-03T15:35:44.642Z,103035.53
2023-03-03T15:38:22.284Z,103044.81
2023-03-03T15:40:54.420Z,103016.41
2023-03-03T15:43:26.433Z,103030.69
2023-03-03T15:45:59.068Z,103036.06
2023-03-03T15:48:39.153Z,103035.03
2023-03-03T15:51:10.292Z,103027.88
2023-03-03T15:54:00.901Z,103036.84
2023-03-03T15:56:34.973Z,103035.91
2023-03-03T15:59:16.404Z,103029.09
2023-03-03T16:01:49.010Z,103011.72
2023-03-03T16:04:18.156Z,103030.66
2023-03-03T16:06:56.488Z,103007.28
2023-03-03T16:09:43.952Z,102984.00
2023-03-03T16:12:24.654Z,103023.38
2023-03-03T16:15:01.068Z,103027.91
2023-03-03T16:17:31.890Z,103001.13
2023-03-03T16:20:07.349Z,103010.53
2023-03-03T16:22:42.994Z,103029.22
2023-03-03T16:25:23.946Z,103030.25
2023-03-03T16:27:55.857Z,103013.09
2023-03-03T16:30:28.914Z,103011.78
2023-03-03T16:33:17.696Z,103008.53
2023-03-03T16:36:01.875Z,103018.88
2023-03-03T16:38:31.465Z,103048.31
2023-03-03T16:41:03.501Z,103054.75
2023-03-03T16:43:39.059Z,103040.25
2023-03-03T16:46:13.195Z,103017.81
2023-03-03T16:48:46.201Z,103039.31
2023-03-03T16:51:22.681Z,103044.63
2023-03-03T16:53:54.291Z,103049.59
2023-03-03T16:56:24.380Z,103055.75
2023-03-03T16:59:00.481Z,103003.06
2023-03-03T17:01:31.295Z,103048.72
2023-03-03T17:04:00.955Z,103036.91
2023-03-03T17:06:32.794Z,103039.78
2023-03-03T17:09:31.493Z,103056.38
2023-03-03T17:12:07.397Z,103062.28
2023-03-03T17:14:43.323Z,103056.22
2023-03-03T17:17:13.274Z,103060.63
2023-03-03T17:20:01.569Z,103067.91
2023-03-03T17:22:36.846Z,103068.13
2023-03-03T17:25:07.161Z,103053.59
2023-03-03T17:27:43.324Z,103068.44
2023-03-03T17:30:20.592Z,103054.19
2023-03-03T17:33:12.518Z,103077.16
2023-03-03T17:35:47.174Z,103068.75
2023-03-03T17:38:19.303Z,103086.97
2023-03-03T17:40:54.390Z,103080.34
2023-03-03T17:43:24.200Z,103082.16
2023-03-03T17:45:55.376Z,103086.47
2023-03-03T17:48:41.920Z,103089.13
2023-03-03T17:51:53.481Z,103089.13
2023-03-03T17:54:33.384Z,103083.94
2023-03-03T17:57:09.028Z,103093.81
2023-03-03T17:59:50.204Z,103081.38
2023-03-03T18:02:55.022Z,103079.66
2023-03-03T18:05:44.056Z,103085.88
2023-03-03T18:08:22.046Z,103085.25
2023-03-03T18:11:06.240Z,103089.75
2023-03-03T18:13:59.847Z,103090.59
2023-03-03T18:16:34.155Z,103083.84
2023-03-03T18:19:13.971Z,103100.41
2023-03-03T18:21:44.970Z,103074.81
2023-03-03T18:24:28.298Z,103102.44
2023-03-03T18:26:56.649Z,103087.00
2023-03-03T18:29:26.316Z,103106.94
2023-03-03T18:32:06.031Z,103096.28
2023-03-03T18:34:39.183Z,103101.69
2023-03-03T18:37:11.947Z,103100.94
2023-03-03T18:39:43.331Z,103108.09
2023-03-03T18:42:35.170Z,103097.47
2023-03-03T18:45:37.420Z,103119.91
2023-03-03T18:48:09.041Z,103114.91
2023-03-03T18:50:39.036Z,103124.56
2023-03-03T18:53:22.522Z,103128.75
2023-03-03T18:55:51.015Z,103115.69
2023-03-03T18:58:51.257Z,103126.75
2023-03-03T19:01:41.798Z,103128.63
2023-03-03T19:04:23.913Z,103114.19
2023-03-03T19:07:26.564Z,103104.94
2023-03-03T19:10:01.752Z,103140.63
2023-03-03T19:12:58.904Z,103152.22
2023-03-03T19:15:52.250Z,103146.16
2023-03-03T19:18:21.748Z,103153.09
2023-03-03T19:20:52.596Z,103162.63
2023-03-03T19:23:22.934Z,103142.06
2023-03-03T19:26:29.671Z,103178.16
2023-03-03T19:28:59.627Z,103152.22
2023-03-03T19:31:29.682Z,103167.94
2023-03-03T19:33:59.113Z,103174.94
2023-03-03T19:36:52.317Z,103181.72
2023-03-03T19:39:46.820Z,103174.88
2023-03-03T19:42:21.503Z,103170.88
2023-03-03T19:44:59.994Z,103161.38
2023-03-03T19:47:34.230Z,103140.78
2023-03-03T19:50:08.987Z,103185.53
2023-03-03T19:52:39.548Z,103181.03
2023-03-03T19:55:20.097Z,103187.97
2023-03-03T19:57:54.056Z,103175.22
2023-03-03T20:00:25.739Z,103192.41
2023-03-03T20:03:01.503Z,103194.09
2023-03-03T20:05:30.833Z,103196.66
2023-03-03T20:08:01.859Z,103191.44
2023-03-03T20:10:40.345Z,103195.81
2023-03-03T20:13:18.013Z,103202.03
2023-03-03T20:15:50.791Z,103195.22
2023-03-03T20:18:41.960Z,103204.81
2023-03-03T20:21:15.222Z,103212.69
2023-03-03T20:23:49.520Z,103196.38
2023-03-03T20:26:22.249Z,103211.84
2023-03-03T20:29:12.078Z,103209.13
2023-03-03T20:31:42.804Z,103222.41
2023-03-03T20:34:14.411Z,103216.38
2023-03-03T20:36:48.849Z,103199.50
2023-03-03T20:39:20.836Z,103204.44
2023-03-03T20:42:00.125Z,103205.13
2023-03-03T20:44:37.357Z,103201.69
2023-03-03T20:47:07.273Z,103218.97
2023-03-03T20:49:44.276Z,103211.09
2023-03-03T20:52:15.205Z,103179.50
2023-03-03T20:54:46.013Z,103201.03
2023-03-03T20:57:18.484Z,103203.69
2023-03-03T20:59:49.381Z,103186.50
2023-03-03T21:02:20.179Z,103216.38
2023-03-03T21:04:48.204Z,103224.38
2023-03-03T21:07:25.901Z,103191.69
2023-03-03T21:10:10.683Z,103222.81
2023-03-03T21:12:40.400Z,103219.44
2023-03-03T21:15:10.145Z,103220.66
2023-03-03T21:17:38.162Z,103222.38
2023-03-03T21:20:20.385Z,103221.63
2023-03-03T21:22:48.478Z,103217.38
2023-03-03T21:25:43.880Z,103231.97
2023-03-03T21:28:18.005Z,103231.19
2023-03-03T21:31:10.121Z,103231.97
2023-03-03T21:33:48.363Z,103223.25
2023-03-03T21:36:17.514Z,103195.06
2023-03-03T21:38:46.490Z,103239.38
2023-03-03T21:41:15.368Z,103227.25
2023-03-03T21:43:45.215Z,103214.56
2023-03-03T21:46:13.473Z,103237.81
2023-03-03T21:48:42.648Z,103227.53
2023-03-03T21:51:10.687Z,103209.22
2023-03-03T21:53:38.890Z,103229.09
2023-03-03T21:56:07.685Z,103229.09
2023-03-03T21:58:35.826Z,103230.81
2023-03-03T22:01:05.895Z,103227.25
2023-03-03T22:03:34.377Z,103223.69
2023-03-03T22:06:02.557Z,103232.66
2023-03-03T22:08:31.468Z,103206.13
2023-03-03T22:10:59.381Z,103228.50
2023-03-03T22:13:27.472Z,103227.78
2023-03-03T22:15:55.470Z,103221.19
2023-03-03T22:18:25.007Z,103243.00
2023-03-03T22:20:52.912Z,103238.50
2023-03-03T22:23:21.184Z,103242.88
2023-03-03T22:25:49.150Z,103242.06
2023-03-03T22:28:17.185Z,103233.22
2023-03-03T22:30:45.137Z,103245.28
2023-03-03T22:33:13.171Z,103234.66
2023-03-03T22:35:42.825Z,103230.28
2023-03-03T22:38:11.137Z,103230.94
2023-03-03T22:40:39.037Z,103240.66
2023-03-03T22:43:07.098Z,103241.50
2023-03-03T22:45:35.058Z,103247.72
2023-03-03T22:48:03.016Z,103245.06
2023-03-03T22:50:30.989Z,103236.28
2023-03-03T22:53:00.559Z,103229.50
2023-03-03T22:55:29.346Z,103243.50
2023-03-03T22:57:57.397Z,103242.78
2023-03-03T23:00:25.413Z,103237.13
2023-03-03T23:02:53.364Z,103253.50
2023-03-03T23:05:21.481Z,103256.19
2023-03-03T23:07:49.516Z,103252.75
2023-03-03T23:10:18.990Z,103252.00
2023-03-03T23:12:46.968Z,103258.03
2023-03-03T23:15:15.724Z,103253.63
2023-03-03T23:17:43.996Z,103257.94
2023-03-03T23:20:13.047Z,103242.63
2023-03-03T23:22:41.033Z,103259.66
2023-03-03T23:25:10.207Z,103259.38
2023-03-03T23:27:39.552Z,103271.66
2023-03-03T23:30:09.009Z,103244.84
2023-03-03T23:32:36.969Z,103264.53
2023-03-03T23:35:05.562Z,103253.09
2023-03-03T23:37:33.604Z,103254.78
2023-03-03T23:40:01.705Z,103257.53
2023-03-03T23:42:30.754Z,103245.22
2023-03-03T23:45:00.111Z,103249.66
2023-03-03T23:47:28.248Z,103243.50
2023-03-03T23:49:56.250Z,103219.25
2023-03-03T23:52:24.261Z,103240.22
2023-03-03T23:54:53.102Z,103232.28
2023-03-03T23:57:21.143Z,103236.72
2023-03-03T23:59:49.078Z,103197.03
